»·PEaware :: N911VU KSNA-KAVX

N911VU :: KSNA-KAVX

FLIGHT INFORMATION

Flight Status: Arrived
Operator: Privately registered:
United States
More flights under this callsign
Pilot: Austin P. (20876)
Aircraft: SOCATA TBM-900
(TBM9)
More flights by this aircraft type
Origin: KSNA John Wayne-Orange Co
United States
Destination: KAVX Catalina
United States
More flights between these airports :: More routes between these airports
Route: +SLI V21 SXC
File this flight plan on PilotEdge
Remarks:
Altitude:
(Current/Filed)
6,000ft
Speed:
(Current/Filed)
220kts
Departed: 05-Dec-18 01:26 PM
Arrived: 05-Dec-18 01:48 PM
Distance/Time
Traveled:
1nm/0:22
Distance/Time
To Go:
Arrived

Flight Plot

Page will automatically refresh every two minutes.


Map Options




Map Legend


Flown Route
Filed Route
Departure Airport
Arrival Airport
Navaid (VOR, NDB)
Fix

Horizontal Profiles

Position Reports

Time Latitude Longitude Heading Altitude Ground
Speed
05-Dec-18 13:04 33.672459 -117.873276 30 59ft 0kts
05-Dec-18 13:05 33.672459 -117.873276 30 59ft 0kts
05-Dec-18 13:06 33.672459 -117.873276 30 59ft 0kts
05-Dec-18 13:07 33.672459 -117.873276 30 59ft 0kts
05-Dec-18 13:08 33.672459 -117.873276 30 59ft 0kts
05-Dec-18 13:09 33.672459 -117.873276 30 59ft 0kts
05-Dec-18 13:10 33.672459 -117.873276 30 59ft 0kts
05-Dec-18 13:11 33.672459 -117.873276 30 59ft 0kts
05-Dec-18 13:12 33.672459 -117.873276 30 59ft 0kts
05-Dec-18 13:13 33.672459 -117.873276 30 59ft 0kts
05-Dec-18 13:14 33.672459 -117.873276 30 59ft 0kts
05-Dec-18 13:15 33.672459 -117.873276 30 59ft 0kts
05-Dec-18 13:16 33.672459 -117.873276 30 59ft 0kts
05-Dec-18 13:17 33.672459 -117.873276 30 59ft 0kts
05-Dec-18 13:18 33.672459 -117.873276 30 59ft 0kts
05-Dec-18 13:19 33.672459 -117.873276 30 59ft 0kts
05-Dec-18 13:20 33.672490 -117.873056 109 59ft 0kts
05-Dec-18 13:21 33.672665 -117.872253 27 59ft 9kts
05-Dec-18 13:22 33.675918 -117.870207 27 59ft 15kts
05-Dec-18 13:23 33.679888 -117.867842 25 59ft 16kts
05-Dec-18 13:24 33.680957 -117.865841 118 59ft 3kts
05-Dec-18 13:25 33.670643 -117.871980 207 505ft 122kts
05-Dec-18 13:26 33.629978 -117.880474 186 2102ft 167kts
05-Dec-18 13:27 33.579415 -117.888601 186 3684ft 199kts
05-Dec-18 13:28 33.521649 -117.909187 211 4013ft 239kts
05-Dec-18 13:29 33.462844 -117.950536 211 4000ft 248kts
05-Dec-18 13:30 33.403503 -117.992333 211 3997ft 249kts
05-Dec-18 13:31 33.379774 -118.057070 288 4002ft 251kts
05-Dec-18 13:32 33.379483 -118.140072 266 4083ft 252kts
05-Dec-18 13:33 33.378260 -118.222253 264 4070ft 233kts
05-Dec-18 13:34 33.377083 -118.297044 263 4073ft 219kts
05-Dec-18 13:35 33.375889 -118.369289 262 4070ft 215kts
05-Dec-18 13:36 33.395310 -118.429294 357 4067ft 225kts
05-Dec-18 13:37 33.451743 -118.447091 349 4070ft 227kts
05-Dec-18 13:38 33.506649 -118.423794 34 4079ft 213kts
05-Dec-18 13:39 33.566682 -118.421349 359 4082ft 218kts
05-Dec-18 13:40 33.572549 -118.464814 170 3872ft 199kts
05-Dec-18 13:41 33.522655 -118.442957 152 4072ft 183kts
05-Dec-18 13:42 33.478379 -118.417070 152 4070ft 167kts
05-Dec-18 13:43 33.434179 -118.411591 178 3971ft 162kts
05-Dec-18 13:44 33.390693 -118.418453 194 2637ft 158kts
05-Dec-18 13:45 33.393950 -118.452085 47 2366ft 122kts
05-Dec-18 13:46 33.399824 -118.425353 74 1802ft 80kts
05-Dec-18 13:47 33.405726 -118.415576 322 1541ft 0kts
05-Dec-18 13:48 33.405726 -118.415576 321 1541ft 0kts
05-Dec-18 13:51 33.667175 -117.872127 221 59ft 0kts
05-Dec-18 13:52 33.667175 -117.872127 221 59ft 0kts
05-Dec-18 13:53 33.667175 -117.872127 221 59ft 0kts
05-Dec-18 13:54 33.667175 -117.872127 221 59ft 0kts
05-Dec-18 13:55 33.667175 -117.872127 221 59ft 0kts
05-Dec-18 13:56 33.667175 -117.872127 221 59ft 0kts
05-Dec-18 13:57 33.667175 -117.872127 221 59ft 0kts
05-Dec-18 13:58 33.667175 -117.872127 221 59ft 0kts
05-Dec-18 13:59 33.667175 -117.872127 221 59ft 0kts
05-Dec-18 14:00 33.667175 -117.872127 221 59ft 0kts
05-Dec-18 14:01 33.667175 -117.872127 221 59ft 0kts

Navigation Log

Ident Type
Flight plan parsing failed, navigation log unavailable